sensor_id;sensor_type;location;lat;lon;timestamp;P1;durP1;ratioP1;P2;durP2;ratioP2
49962;SDS011;36180;57.678;11.910;2023-04-15T00:00:10;14.40;;;9.10;;
49962;SDS011;36180;57.678;11.910;2023-04-15T00:02:43;13.55;;;9.57;;
49962;SDS011;36180;57.678;11.910;2023-04-15T00:05:10;15.43;;;9.77;;
49962;SDS011;36180;57.678;11.910;2023-04-15T00:07:38;12.23;;;9.50;;
49962;SDS011;36180;57.678;11.910;2023-04-15T00:10:06;12.13;;;9.05;;
49962;SDS011;36180;57.678;11.910;2023-04-15T00:12:34;11.50;;;8.30;;
49962;SDS011;36180;57.678;11.910;2023-04-15T00:15:01;12.90;;;9.00;;
49962;SDS011;36180;57.678;11.910;2023-04-15T00:17:28;12.20;;;9.43;;
49962;SDS011;36180;57.678;11.910;2023-04-15T00:19:56;13.85;;;9.30;;
49962;SDS011;36180;57.678;11.910;2023-04-15T00:22:24;12.98;;;9.38;;
49962;SDS011;36180;57.678;11.910;2023-04-15T00:24:53;13.65;;;10.00;;
49962;SDS011;36180;57.678;11.910;2023-04-15T00:27:20;12.70;;;9.65;;
49962;SDS011;36180;57.678;11.910;2023-04-15T00:29:47;12.00;;;8.60;;
49962;SDS011;36180;57.678;11.910;2023-04-15T00:32:14;13.38;;;9.70;;
49962;SDS011;36180;57.678;11.910;2023-04-15T00:34:41;13.88;;;9.43;;
49962;SDS011;36180;57.678;11.910;2023-04-15T00:37:08;12.00;;;9.63;;
49962;SDS011;36180;57.678;11.910;2023-04-15T00:39:36;10.50;;;8.77;;
49962;SDS011;36180;57.678;11.910;2023-04-15T00:42:04;15.45;;;9.20;;
49962;SDS011;36180;57.678;11.910;2023-04-15T00:44:32;14.25;;;10.20;;
49962;SDS011;36180;57.678;11.910;2023-04-15T00:46:59;14.35;;;10.05;;
49962;SDS011;36180;57.678;11.910;2023-04-15T00:49:27;12.98;;;9.27;;
49962;SDS011;36180;57.678;11.910;2023-04-15T00:51:55;13.30;;;9.73;;
49962;SDS011;36180;57.678;11.910;2023-04-15T00:54:22;12.57;;;9.73;;
49962;SDS011;36180;57.678;11.910;2023-04-15T00:56:49;12.07;;;9.18;;
49962;SDS011;36180;57.678;11.910;2023-04-15T00:59:19;13.52;;;9.95;;
49962;SDS011;36180;57.678;11.910;2023-04-15T01:01:46;15.65;;;9.70;;
49962;SDS011;36180;57.678;11.910;2023-04-15T01:04:14;13.68;;;9.27;;
49962;SDS011;36180;57.678;11.910;2023-04-15T01:06:41;12.52;;;9.48;;
49962;SDS011;36180;57.678;11.910;2023-04-15T01:09:09;12.52;;;9.65;;
49962;SDS011;36180;57.678;11.910;2023-04-15T01:11:37;13.15;;;9.43;;
49962;SDS011;36180;57.678;11.910;2023-04-15T01:14:07;12.80;;;9.80;;
49962;SDS011;36180;57.678;11.910;2023-04-15T01:16:36;11.77;;;9.45;;
49962;SDS011;36180;57.678;11.910;2023-04-15T01:19:05;13.45;;;9.43;;
49962;SDS011;36180;57.678;11.910;2023-04-15T01:21:35;12.63;;;9.82;;
49962;SDS011;36180;57.678;11.910;2023-04-15T01:24:03;12.98;;;9.18;;
49962;SDS011;36180;57.678;11.910;2023-04-15T01:26:36;12.60;;;8.88;;
49962;SDS011;36180;57.678;11.910;2023-04-15T01:29:06;13.10;;;9.20;;
49962;SDS011;36180;57.678;11.910;2023-04-15T01:31:33;10.88;;;9.27;;
49962;SDS011;36180;57.678;11.910;2023-04-15T01:34:00;12.68;;;8.85;;
49962;SDS011;36180;57.678;11.910;2023-04-15T01:36:28;11.70;;;8.52;;
49962;SDS011;36180;57.678;11.910;2023-04-15T01:38:55;11.63;;;8.85;;
49962;SDS011;36180;57.678;11.910;2023-04-15T01:41:24;12.35;;;8.43;;
49962;SDS011;36180;57.678;11.910;2023-04-15T01:43:53;11.18;;;8.43;;
49962;SDS011;36180;57.678;11.910;2023-04-15T01:46:21;15.73;;;9.40;;
49962;SDS011;36180;57.678;11.910;2023-04-15T01:48:48;12.02;;;8.95;;
49962;SDS011;36180;57.678;11.910;2023-04-15T01:51:15;14.48;;;8.95;;
49962;SDS011;36180;57.678;11.910;2023-04-15T01:53:42;13.55;;;8.75;;
49962;SDS011;36180;57.678;11.910;2023-04-15T01:56:09;14.13;;;9.57;;
49962;SDS011;36180;57.678;11.910;2023-04-15T01:58:37;12.55;;;9.45;;
49962;SDS011;36180;57.678;11.910;2023-04-15T02:01:06;12.23;;;8.70;;
49962;SDS011;36180;57.678;11.910;2023-04-15T02:03:34;12.55;;;8.60;;
49962;SDS011;36180;57.678;11.910;2023-04-15T02:06:02;13.27;;;9.27;;
49962;SDS011;36180;57.678;11.910;2023-04-15T02:08:30;11.00;;;8.63;;
49962;SDS011;36180;57.678;11.910;2023-04-15T02:10:57;11.70;;;8.70;;
49962;SDS011;36180;57.678;11.910;2023-04-15T02:13:25;13.80;;;8.93;;
49962;SDS011;36180;57.678;11.910;2023-04-15T02:15:55;13.73;;;8.75;;
49962;SDS011;36180;57.678;11.910;2023-04-15T02:18:24;12.55;;;8.70;;
49962;SDS011;36180;57.678;11.910;2023-04-15T02:20:51;12.75;;;9.38;;
49962;SDS011;36180;57.678;11.910;2023-04-15T02:23:18;12.32;;;8.27;;
49962;SDS011;36180;57.678;11.910;2023-04-15T02:25:45;15.43;;;8.68;;
49962;SDS011;36180;57.678;11.910;2023-04-15T02:28:12;13.73;;;9.40;;
49962;SDS011;36180;57.678;11.910;2023-04-15T02:30:39;14.73;;;9.45;;
49962;SDS011;36180;57.678;11.910;2023-04-15T02:33:07;13.00;;;8.70;;
49962;SDS011;36180;57.678;11.910;2023-04-15T02:35:35;12.60;;;8.55;;
49962;SDS011;36180;57.678;11.910;2023-04-15T02:38:06;14.20;;;8.43;;
49962;SDS011;36180;57.678;11.910;2023-04-15T02:40:33;11.85;;;9.20;;
49962;SDS011;36180;57.678;11.910;2023-04-15T02:43:01;12.65;;;8.38;;
49962;SDS011;36180;57.678;11.910;2023-04-15T02:45:29;13.10;;;9.32;;
49962;SDS011;36180;57.678;11.910;2023-04-15T02:48:00;12.38;;;9.18;;
49962;SDS011;36180;57.678;11.910;2023-04-15T02:50:30;12.52;;;9.07;;
49962;SDS011;36180;57.678;11.910;2023-04-15T02:52:59;13.93;;;9.35;;
49962;SDS011;36180;57.678;11.910;2023-04-15T02:55:27;13.70;;;8.65;;
49962;SDS011;36180;57.678;11.910;2023-04-15T02:57:54;13.55;;;9.40;;
49962;SDS011;36180;57.678;11.910;2023-04-15T03:00:23;13.52;;;9.00;;
49962;SDS011;36180;57.678;11.910;2023-04-15T03:02:50;13.40;;;8.45;;
49962;SDS011;36180;57.678;11.910;2023-04-15T03:07:50;13.52;;;8.70;;
49962;SDS011;36180;57.678;11.910;2023-04-15T03:10:19;13.20;;;9.27;;
49962;SDS011;36180;57.678;11.910;2023-04-15T03:12:46;12.02;;;9.13;;
49962;SDS011;36180;57.678;11.910;2023-04-15T03:15:19;13.48;;;9.93;;
49962;SDS011;36180;57.678;11.910;2023-04-15T03:17:50;11.80;;;9.25;;
49962;SDS011;36180;57.678;11.910;2023-04-15T03:20:17;11.15;;;8.73;;
49962;SDS011;36180;57.678;11.910;2023-04-15T03:22:46;16.08;;;9.40;;
49962;SDS011;36180;57.678;11.910;2023-04-15T03:25:13;13.80;;;10.15;;
49962;SDS011;36180;57.678;11.910;2023-04-15T03:27:43;12.68;;;9.45;;
49962;SDS011;36180;57.678;11.910;2023-04-15T03:30:11;10.75;;;8.98;;
49962;SDS011;36180;57.678;11.910;2023-04-15T03:32:40;14.25;;;9.95;;
49962;SDS011;36180;57.678;11.910;2023-04-15T03:35:07;15.55;;;10.23;;
49962;SDS011;36180;57.678;11.910;2023-04-15T03:37:35;13.25;;;9.85;;
49962;SDS011;36180;57.678;11.910;2023-04-15T03:40:02;12.02;;;9.50;;
49962;SDS011;36180;57.678;11.910;2023-04-15T03:42:29;13.38;;;9.23;;
49962;SDS011;36180;57.678;11.910;2023-04-15T03:44:58;15.02;;;10.00;;
49962;SDS011;36180;57.678;11.910;2023-04-15T03:47:25;12.68;;;9.85;;
49962;SDS011;36180;57.678;11.910;2023-04-15T03:49:52;18.75;;;10.20;;
49962;SDS011;36180;57.678;11.910;2023-04-15T03:52:19;13.95;;;9.70;;
49962;SDS011;36180;57.678;11.910;2023-04-15T03:54:46;13.82;;;9.85;;
49962;SDS011;36180;57.678;11.910;2023-04-15T03:57:13;11.95;;;9.38;;
49962;SDS011;36180;57.678;11.910;2023-04-15T03:59:40;15.57;;;9.50;;
49962;SDS011;36180;57.678;11.910;2023-04-15T04:02:08;13.73;;;9.55;;
49962;SDS011;36180;57.678;11.910;2023-04-15T04:04:35;12.45;;;8.95;;
49962;SDS011;36180;57.678;11.910;2023-04-15T04:07:03;13.05;;;9.45;;
49962;SDS011;36180;57.678;11.910;2023-04-15T04:09:30;14.13;;;9.80;;
49962;SDS011;36180;57.678;11.910;2023-04-15T04:11:57;10.73;;;9.30;;
49962;SDS011;36180;57.678;11.910;2023-04-15T04:14:24;15.13;;;9.43;;
49962;SDS011;36180;57.678;11.910;2023-04-15T04:16:54;14.00;;;9.60;;
49962;SDS011;36180;57.678;11.910;2023-04-15T04:19:22;14.80;;;9.52;;
49962;SDS011;36180;57.678;11.910;2023-04-15T04:21:50;12.80;;;9.75;;
49962;SDS011;36180;57.678;11.910;2023-04-15T04:24:17;16.00;;;10.55;;
49962;SDS011;36180;57.678;11.910;2023-04-15T04:26:44;13.02;;;9.90;;
49962;SDS011;36180;57.678;11.910;2023-04-15T04:29:11;13.52;;;10.05;;
49962;SDS011;36180;57.678;11.910;2023-04-15T04:31:38;16.27;;;9.82;;
49962;SDS011;36180;57.678;11.910;2023-04-15T04:34:06;13.43;;;9.70;;
49962;SDS011;36180;57.678;11.910;2023-04-15T04:36:34;16.40;;;9.82;;
49962;SDS011;36180;57.678;11.910;2023-04-15T04:39:01;16.98;;;10.45;;
49962;SDS011;36180;57.678;11.910;2023-04-15T04:41:28;14.95;;;9.57;;
49962;SDS011;36180;57.678;11.910;2023-04-15T04:43:56;14.05;;;9.55;;
49962;SDS011;36180;57.678;11.910;2023-04-15T04:46:23;14.15;;;9.77;;
49962;SDS011;36180;57.678;11.910;2023-04-15T04:48:50;13.48;;;9.65;;
49962;SDS011;36180;57.678;11.910;2023-04-15T04:51:17;17.33;;;10.13;;
49962;SDS011;36180;57.678;11.910;2023-04-15T04:53:46;18.48;;;9.85;;
49962;SDS011;36180;57.678;11.910;2023-04-15T04:56:13;13.73;;;9.52;;
49962;SDS011;36180;57.678;11.910;2023-04-15T04:58:40;15.35;;;9.35;;
49962;SDS011;36180;57.678;11.910;2023-04-15T05:01:07;12.15;;;9.25;;
49962;SDS011;36180;57.678;11.910;2023-04-15T05:03:34;13.10;;;9.43;;
49962;SDS011;36180;57.678;11.910;2023-04-15T05:06:02;15.48;;;9.20;;
49962;SDS011;36180;57.678;11.910;2023-04-15T05:08:30;13.63;;;9.02;;
49962;SDS011;36180;57.678;11.910;2023-04-15T05:10:59;14.85;;;8.77;;
49962;SDS011;36180;57.678;11.910;2023-04-15T05:13:26;15.70;;;9.55;;
49962;SDS011;36180;57.678;11.910;2023-04-15T05:15:54;15.27;;;9.93;;
49962;SDS011;36180;57.678;11.910;2023-04-15T05:18:21;16.85;;;8.85;;
49962;SDS011;36180;57.678;11.910;2023-04-15T05:20:48;14.13;;;9.57;;
49962;SDS011;36180;57.678;11.910;2023-04-15T05:23:15;14.90;;;9.20;;
49962;SDS011;36180;57.678;11.910;2023-04-15T05:25:42;16.20;;;10.07;;
49962;SDS011;36180;57.678;11.910;2023-04-15T05:28:11;15.43;;;9.48;;
49962;SDS011;36180;57.678;11.910;2023-04-15T05:30:38;14.43;;;9.90;;
49962;SDS011;36180;57.678;11.910;2023-04-15T05:33:06;18.48;;;9.95;;
49962;SDS011;36180;57.678;11.910;2023-04-15T05:35:33;15.48;;;9.90;;
49962;SDS011;36180;57.678;11.910;2023-04-15T05:38:00;15.50;;;10.43;;
49962;SDS011;36180;57.678;11.910;2023-04-15T05:40:27;15.05;;;9.48;;
49962;SDS011;36180;57.678;11.910;2023-04-15T05:42:55;16.88;;;9.95;;
49962;SDS011;36180;57.678;11.910;2023-04-15T05:45:24;18.70;;;9.55;;
49962;SDS011;36180;57.678;11.910;2023-04-15T05:47:51;19.10;;;10.05;;
49962;SDS011;36180;57.678;11.910;2023-04-15T05:50:18;15.07;;;10.20;;
49962;SDS011;36180;57.678;11.910;2023-04-15T05:52:46;13.15;;;9.82;;
49962;SDS011;36180;57.678;11.910;2023-04-15T05:55:13;19.38;;;9.85;;
49962;SDS011;36180;57.678;11.910;2023-04-15T05:57:40;17.02;;;9.95;;
49962;SDS011;36180;57.678;11.910;2023-04-15T06:00:08;18.35;;;9.95;;
49962;SDS011;36180;57.678;11.910;2023-04-15T06:02:37;14.68;;;9.45;;
49962;SDS011;36180;57.678;11.910;2023-04-15T06:05:04;13.63;;;8.90;;
49962;SDS011;36180;57.678;11.910;2023-04-15T06:07:35;14.65;;;9.68;;
49962;SDS011;36180;57.678;11.910;2023-04-15T06:10:02;16.88;;;9.32;;
49962;SDS011;36180;57.678;11.910;2023-04-15T06:12:31;18.50;;;10.15;;
49962;SDS011;36180;57.678;11.910;2023-04-15T06:14:58;17.45;;;9.68;;
49962;SDS011;36180;57.678;11.910;2023-04-15T06:17:25;15.40;;;9.73;;
49962;SDS011;36180;57.678;11.910;2023-04-15T06:19:53;14.63;;;10.15;;
49962;SDS011;36180;57.678;11.910;2023-04-15T06:22:20;19.52;;;9.93;;
49962;SDS011;36180;57.678;11.910;2023-04-15T06:24:48;17.15;;;9.90;;
49962;SDS011;36180;57.678;11.910;2023-04-15T06:27:15;21.30;;;10.77;;
49962;SDS011;36180;57.678;11.910;2023-04-15T06:29:43;16.90;;;10.18;;
49962;SDS011;36180;57.678;11.910;2023-04-15T06:32:10;18.67;;;11.00;;
49962;SDS011;36180;57.678;11.910;2023-04-15T06:34:37;15.85;;;10.02;;
49962;SDS011;36180;57.678;11.910;2023-04-15T06:37:06;14.85;;;10.35;;
49962;SDS011;36180;57.678;11.910;2023-04-15T06:39:34;15.18;;;10.23;;
49962;SDS011;36180;57.678;11.910;2023-04-15T06:42:01;15.63;;;9.55;;
49962;SDS011;36180;57.678;11.910;2023-04-15T06:44:28;16.38;;;10.20;;
49962;SDS011;36180;57.678;11.910;2023-04-15T06:46:56;14.65;;;9.98;;
49962;SDS011;36180;57.678;11.910;2023-04-15T06:49:23;18.80;;;10.32;;
49962;SDS011;36180;57.678;11.910;2023-04-15T06:51:50;18.90;;;10.77;;
49962;SDS011;36180;57.678;11.910;2023-04-15T06:54:19;13.73;;;9.50;;
49962;SDS011;36180;57.678;11.910;2023-04-15T06:56:46;20.83;;;9.70;;
49962;SDS011;36180;57.678;11.910;2023-04-15T06:59:14;17.77;;;10.18;;
49962;SDS011;36180;57.678;11.910;2023-04-15T07:01:41;15.48;;;10.18;;
49962;SDS011;36180;57.678;11.910;2023-04-15T07:04:08;18.70;;;10.85;;
49962;SDS011;36180;57.678;11.910;2023-04-15T07:06:35;14.70;;;10.50;;
49962;SDS011;36180;57.678;11.910;2023-04-15T07:09:03;18.00;;;10.65;;
49962;SDS011;36180;57.678;11.910;2023-04-15T07:11:31;16.77;;;10.40;;
49962;SDS011;36180;57.678;11.910;2023-04-15T07:13:58;14.13;;;10.40;;
49962;SDS011;36180;57.678;11.910;2023-04-15T07:16:25;16.20;;;10.13;;
49962;SDS011;36180;57.678;11.910;2023-04-15T07:18:52;20.08;;;10.82;;
49962;SDS011;36180;57.678;11.910;2023-04-15T07:21:20;19.15;;;11.52;;
49962;SDS011;36180;57.678;11.910;2023-04-15T07:23:48;15.30;;;10.05;;
49962;SDS011;36180;57.678;11.910;2023-04-15T07:26:15;16.55;;;10.98;;
49962;SDS011;36180;57.678;11.910;2023-04-15T07:28:43;15.98;;;10.43;;
49962;SDS011;36180;57.678;11.910;2023-04-15T07:31:11;16.42;;;10.82;;
49962;SDS011;36180;57.678;11.910;2023-04-15T07:33:39;16.92;;;11.20;;
49962;SDS011;36180;57.678;11.910;2023-04-15T07:36:06;16.10;;;10.63;;
49962;SDS011;36180;57.678;11.910;2023-04-15T07:38:33;17.00;;;10.98;;
49962;SDS011;36180;57.678;11.910;2023-04-15T07:41:00;20.85;;;11.60;;
49962;SDS011;36180;57.678;11.910;2023-04-15T07:43:28;17.10;;;10.50;;
49962;SDS011;36180;57.678;11.910;2023-04-15T07:45:56;15.85;;;10.80;;
49962;SDS011;36180;57.678;11.910;2023-04-15T07:48:24;18.67;;;10.90;;
49962;SDS011;36180;57.678;11.910;2023-04-15T07:50:51;18.10;;;10.98;;
49962;SDS011;36180;57.678;11.910;2023-04-15T07:53:18;18.30;;;11.40;;
49962;SDS011;36180;57.678;11.910;2023-04-15T07:55:45;23.33;;;11.52;;
49962;SDS011;36180;57.678;11.910;2023-04-15T07:58:12;21.27;;;11.00;;
49962;SDS011;36180;57.678;11.910;2023-04-15T08:00:39;15.40;;;11.35;;
49962;SDS011;36180;57.678;11.910;2023-04-15T08:03:08;18.73;;;11.30;;
49962;SDS011;36180;57.678;11.910;2023-04-15T08:05:35;17.70;;;10.30;;
49962;SDS011;36180;57.678;11.910;2023-04-15T08:08:02;21.45;;;10.48;;
49962;SDS011;36180;57.678;11.910;2023-04-15T08:10:29;16.15;;;10.32;;
49962;SDS011;36180;57.678;11.910;2023-04-15T08:12:56;18.75;;;11.52;;
49962;SDS011;36180;57.678;11.910;2023-04-15T08:15:23;17.50;;;10.77;;
49962;SDS011;36180;57.678;11.910;2023-04-15T08:17:51;17.45;;;10.88;;
49962;SDS011;36180;57.678;11.910;2023-04-15T08:20:19;18.10;;;11.20;;
49962;SDS011;36180;57.678;11.910;2023-04-15T08:22:47;17.42;;;10.48;;
49962;SDS011;36180;57.678;11.910;2023-04-15T08:25:16;17.58;;;10.93;;
49962;SDS011;36180;57.678;11.910;2023-04-15T08:27:44;20.48;;;11.05;;
49962;SDS011;36180;57.678;11.910;2023-04-15T08:30:11;13.43;;;10.90;;
49962;SDS011;36180;57.678;11.910;2023-04-15T08:32:38;17.55;;;10.57;;
49962;SDS011;36180;57.678;11.910;2023-04-15T08:35:07;13.77;;;10.23;;
49962;SDS011;36180;57.678;11.910;2023-04-15T08:37:36;18.73;;;9.98;;
49962;SDS011;36180;57.678;11.910;2023-04-15T08:40:03;16.67;;;10.27;;
49962;SDS011;36180;57.678;11.910;2023-04-15T08:42:34;16.50;;;9.93;;
49962;SDS011;36180;57.678;11.910;2023-04-15T08:45:03;15.88;;;10.50;;
49962;SDS011;36180;57.678;11.910;2023-04-15T08:47:31;16.13;;;11.10;;
49962;SDS011;36180;57.678;11.910;2023-04-15T08:49:59;19.23;;;10.75;;
49962;SDS011;36180;57.678;11.910;2023-04-15T08:52:29;19.60;;;9.95;;
49962;SDS011;36180;57.678;11.910;2023-04-15T08:55:01;19.27;;;10.48;;
49962;SDS011;36180;57.678;11.910;2023-04-15T08:57:29;15.52;;;10.18;;
49962;SDS011;36180;57.678;11.910;2023-04-15T08:59:56;15.90;;;10.30;;
49962;SDS011;36180;57.678;11.910;2023-04-15T09:02:24;16.85;;;10.70;;
49962;SDS011;36180;57.678;11.910;2023-04-15T09:04:52;17.23;;;10.32;;
49962;SDS011;36180;57.678;11.910;2023-04-15T09:07:20;16.50;;;10.10;;
49962;SDS011;36180;57.678;11.910;2023-04-15T09:09:47;15.85;;;10.50;;
49962;SDS011;36180;57.678;11.910;2023-04-15T09:12:15;21.85;;;10.90;;
49962;SDS011;36180;57.678;11.910;2023-04-15T09:14:44;18.40;;;10.65;;
49962;SDS011;36180;57.678;11.910;2023-04-15T09:17:11;15.25;;;9.73;;
49962;SDS011;36180;57.678;11.910;2023-04-15T09:19:38;14.50;;;9.57;;
49962;SDS011;36180;57.678;11.910;2023-04-15T09:22:05;13.50;;;9.45;;
49962;SDS011;36180;57.678;11.910;2023-04-15T09:24:34;13.43;;;9.80;;
49962;SDS011;36180;57.678;11.910;2023-04-15T09:27:02;12.18;;;9.25;;
49962;SDS011;36180;57.678;11.910;2023-04-15T09:29:31;16.05;;;9.32;;
49962;SDS011;36180;57.678;11.910;2023-04-15T09:32:08;16.70;;;10.40;;
49962;SDS011;36180;57.678;11.910;2023-04-15T09:34:36;17.77;;;10.90;;
49962;SDS011;36180;57.678;11.910;2023-04-15T09:37:03;14.90;;;10.35;;
49962;SDS011;36180;57.678;11.910;2023-04-15T09:42:14;18.10;;;10.00;;
49962;SDS011;36180;57.678;11.910;2023-04-15T09:44:43;17.70;;;10.60;;
49962;SDS011;36180;57.678;11.910;2023-04-15T09:47:17;15.30;;;9.77;;
49962;SDS011;36180;57.678;11.910;2023-04-15T09:49:55;16.73;;;9.93;;
49962;SDS011;36180;57.678;11.910;2023-04-15T09:52:23;20.13;;;10.88;;
49962;SDS011;36180;57.678;11.910;2023-04-15T09:54:51;18.38;;;10.73;;
49962;SDS011;36180;57.678;11.910;2023-04-15T09:57:19;20.48;;;11.48;;
49962;SDS011;36180;57.678;11.910;2023-04-15T09:59:47;14.13;;;9.32;;
49962;SDS011;36180;57.678;11.910;2023-04-15T10:02:15;19.20;;;9.30;;
49962;SDS011;36180;57.678;11.910;2023-04-15T10:04:44;17.33;;;10.05;;
49962;SDS011;36180;57.678;11.910;2023-04-15T10:07:12;13.40;;;9.30;;
49962;SDS011;36180;57.678;11.910;2023-04-15T10:09:42;17.73;;;9.20;;
49962;SDS011;36180;57.678;11.910;2023-04-15T10:12:11;17.35;;;9.52;;
49962;SDS011;36180;57.678;11.910;2023-04-15T10:14:38;14.02;;;9.43;;
49962;SDS011;36180;57.678;11.910;2023-04-15T10:17:09;16.92;;;9.55;;
49962;SDS011;36180;57.678;11.910;2023-04-15T10:19:37;15.68;;;9.77;;
49962;SDS011;36180;57.678;11.910;2023-04-15T10:22:04;14.73;;;8.50;;
49962;SDS011;36180;57.678;11.910;2023-04-15T10:24:32;14.25;;;8.70;;
49962;SDS011;36180;57.678;11.910;2023-04-15T10:26:59;15.00;;;9.60;;
49962;SDS011;36180;57.678;11.910;2023-04-15T10:29:26;16.08;;;10.07;;
49962;SDS011;36180;57.678;11.910;2023-04-15T10:31:54;15.60;;;9.02;;
49962;SDS011;36180;57.678;11.910;2023-04-15T10:34:23;18.42;;;9.30;;
49962;SDS011;36180;57.678;11.910;2023-04-15T10:36:50;13.65;;;8.30;;
49962;SDS011;36180;57.678;11.910;2023-04-15T10:42:08;13.27;;;8.55;;
49962;SDS011;36180;57.678;11.910;2023-04-15T10:44:37;13.07;;;8.77;;
49962;SDS011;36180;57.678;11.910;2023-04-15T10:47:06;15.13;;;8.82;;
49962;SDS011;36180;57.678;11.910;2023-04-15T10:49:43;10.50;;;7.93;;
49962;SDS011;36180;57.678;11.910;2023-04-15T10:52:11;15.75;;;9.45;;
49962;SDS011;36180;57.678;11.910;2023-04-15T10:54:39;15.10;;;8.73;;
49962;SDS011;36180;57.678;11.910;2023-04-15T10:57:06;13.70;;;8.43;;
49962;SDS011;36180;57.678;11.910;2023-04-15T10:59:35;13.93;;;8.27;;
49962;SDS011;36180;57.678;11.910;2023-04-15T11:02:03;13.30;;;8.32;;
49962;SDS011;36180;57.678;11.910;2023-04-15T11:13:20;12.13;;;8.82;;
49962;SDS011;36180;57.678;11.910;2023-04-15T11:15:57;14.57;;;9.25;;
49962;SDS011;36180;57.678;11.910;2023-04-15T11:18:29;10.75;;;8.55;;
49962;SDS011;36180;57.678;11.910;2023-04-15T11:20:59;16.15;;;8.35;;
49962;SDS011;36180;57.678;11.910;2023-04-15T11:23:30;11.63;;;8.85;;
49962;SDS011;36180;57.678;11.910;2023-04-15T11:25:58;19.42;;;8.30;;
49962;SDS011;36180;57.678;11.910;2023-04-15T11:28:26;14.90;;;9.00;;
49962;SDS011;36180;57.678;11.910;2023-04-15T11:30:54;11.85;;;8.90;;
49962;SDS011;36180;57.678;11.910;2023-04-15T11:33:22;12.60;;;8.40;;
49962;SDS011;36180;57.678;11.910;2023-04-15T11:35:50;14.02;;;8.15;;
49962;SDS011;36180;57.678;11.910;2023-04-15T11:38:20;11.43;;;7.97;;
49962;SDS011;36180;57.678;11.910;2023-04-15T11:40:47;12.65;;;8.35;;
49962;SDS011;36180;57.678;11.910;2023-04-15T11:43:16;12.05;;;8.30;;
49962;SDS011;36180;57.678;11.910;2023-04-15T11:45:51;13.55;;;8.82;;
49962;SDS011;36180;57.678;11.910;2023-04-15T11:48:21;12.25;;;8.38;;
49962;SDS011;36180;57.678;11.910;2023-04-15T11:50:52;12.52;;;8.45;;
49962;SDS011;36180;57.678;11.910;2023-04-15T11:53:21;11.25;;;8.07;;
49962;SDS011;36180;57.678;11.910;2023-04-15T11:55:49;9.52;;;8.30;;
49962;SDS011;36180;57.678;11.910;2023-04-15T11:58:17;11.82;;;8.48;;
49962;SDS011;36180;57.678;11.910;2023-04-15T12:00:46;11.57;;;9.00;;
49962;SDS011;36180;57.678;11.910;2023-04-15T12:03:18;15.32;;;8.82;;
49962;SDS011;36180;57.678;11.910;2023-04-15T12:11:36;10.63;;;7.93;;
49962;SDS011;36180;57.678;11.910;2023-04-15T12:14:06;11.82;;;8.02;;
49962;SDS011;36180;57.678;11.910;2023-04-15T12:16:35;11.90;;;8.15;;
49962;SDS011;36180;57.678;11.910;2023-04-15T12:19:03;12.00;;;7.55;;
49962;SDS011;36180;57.678;11.910;2023-04-15T12:21:35;15.15;;;8.40;;
49962;SDS011;36180;57.678;11.910;2023-04-15T12:24:05;9.75;;;8.32;;
49962;SDS011;36180;57.678;11.910;2023-04-15T12:26:35;12.57;;;7.47;;
49962;SDS011;36180;57.678;11.910;2023-04-15T12:29:03;11.63;;;7.40;;
49962;SDS011;36180;57.678;11.910;2023-04-15T12:31:32;8.85;;;7.35;;
49962;SDS011;36180;57.678;11.910;2023-04-15T12:34:00;8.25;;;7.45;;
49962;SDS011;36180;57.678;11.910;2023-04-15T12:36:27;10.25;;;7.28;;
49962;SDS011;36180;57.678;11.910;2023-04-15T12:39:00;9.32;;;7.18;;
49962;SDS011;36180;57.678;11.910;2023-04-15T12:41:29;10.23;;;7.60;;
49962;SDS011;36180;57.678;11.910;2023-04-15T12:43:57;8.48;;;7.63;;
49962;SDS011;36180;57.678;11.910;2023-04-15T12:46:25;13.32;;;7.50;;
49962;SDS011;36180;57.678;11.910;2023-04-15T12:48:52;8.88;;;7.40;;
49962;SDS011;36180;57.678;11.910;2023-04-15T12:51:19;13.07;;;7.88;;
49962;SDS011;36180;57.678;11.910;2023-04-15T12:53:47;10.23;;;7.32;;
49962;SDS011;36180;57.678;11.910;2023-04-15T12:56:15;8.00;;;6.93;;
49962;SDS011;36180;57.678;11.910;2023-04-15T12:58:42;9.20;;;6.80;;
49962;SDS011;36180;57.678;11.910;2023-04-15T13:01:10;9.93;;;6.88;;
49962;SDS011;36180;57.678;11.910;2023-04-15T13:03:38;8.40;;;6.60;;
49962;SDS011;36180;57.678;11.910;2023-04-15T13:06:05;8.20;;;7.00;;
49962;SDS011;36180;57.678;11.910;2023-04-15T13:08:32;9.23;;;7.20;;
49962;SDS011;36180;57.678;11.910;2023-04-15T13:10:59;16.23;;;6.95;;
49962;SDS011;36180;57.678;11.910;2023-04-15T13:13:26;12.23;;;7.53;;
49962;SDS011;36180;57.678;11.910;2023-04-15T13:15:56;11.70;;;7.22;;
49962;SDS011;36180;57.678;11.910;2023-04-15T13:18:24;9.30;;;7.20;;
49962;SDS011;36180;57.678;11.910;2023-04-15T13:20:51;17.00;;;6.90;;
49962;SDS011;36180;57.678;11.910;2023-04-15T13:23:19;10.93;;;5.68;;
49962;SDS011;36180;57.678;11.910;2023-04-15T13:25:47;10.30;;;6.43;;
49962;SDS011;36180;57.678;11.910;2023-04-15T13:28:14;6.93;;;5.80;;
49962;SDS011;36180;57.678;11.910;2023-04-15T13:30:41;11.40;;;6.35;;
49962;SDS011;36180;57.678;11.910;2023-04-15T13:33:08;8.65;;;6.80;;
49962;SDS011;36180;57.678;11.910;2023-04-15T13:35:36;7.15;;;6.45;;
49962;SDS011;36180;57.678;11.910;2023-04-15T13:38:04;7.05;;;6.18;;
49962;SDS011;36180;57.678;11.910;2023-04-15T13:40:31;6.90;;;6.00;;
49962;SDS011;36180;57.678;11.910;2023-04-15T13:42:58;7.78;;;6.10;;
49962;SDS011;36180;57.678;11.910;2023-04-15T13:45:26;9.80;;;5.90;;
49962;SDS011;36180;57.678;11.910;2023-04-15T13:47:54;11.48;;;6.35;;
49962;SDS011;36180;57.678;11.910;2023-04-15T13:50:21;10.00;;;6.22;;
49962;SDS011;36180;57.678;11.910;2023-04-15T13:52:50;10.70;;;5.68;;
49962;SDS011;36180;57.678;11.910;2023-04-15T13:55:17;8.77;;;5.35;;
49962;SDS011;36180;57.678;11.910;2023-04-15T13:57:44;7.63;;;5.65;;
49962;SDS011;36180;57.678;11.910;2023-04-15T14:00:12;7.78;;;5.60;;
49962;SDS011;36180;57.678;11.910;2023-04-15T14:02:39;5.43;;;4.93;;
49962;SDS011;36180;57.678;11.910;2023-04-15T14:05:07;8.50;;;5.05;;
49962;SDS011;36180;57.678;11.910;2023-04-15T14:07:34;8.65;;;5.20;;
49962;SDS011;36180;57.678;11.910;2023-04-15T14:10:03;7.13;;;5.10;;
49962;SDS011;36180;57.678;11.910;2023-04-15T14:12:31;5.75;;;4.68;;
49962;SDS011;36180;57.678;11.910;2023-04-15T14:14:58;7.53;;;5.00;;
49962;SDS011;36180;57.678;11.910;2023-04-15T14:17:26;4.88;;;4.22;;
49962;SDS011;36180;57.678;11.910;2023-04-15T14:19:53;12.05;;;4.88;;
49962;SDS011;36180;57.678;11.910;2023-04-15T14:22:20;9.27;;;4.95;;
49962;SDS011;36180;57.678;11.910;2023-04-15T14:24:47;7.18;;;4.80;;
49962;SDS011;36180;57.678;11.910;2023-04-15T14:27:18;9.95;;;5.20;;
49962;SDS011;36180;57.678;11.910;2023-04-15T14:29:45;8.50;;;4.25;;
49962;SDS011;36180;57.678;11.910;2023-04-15T14:32:12;9.27;;;4.90;;
49962;SDS011;36180;57.678;11.910;2023-04-15T14:34:40;7.93;;;4.70;;
49962;SDS011;36180;57.678;11.910;2023-04-15T14:37:07;6.55;;;4.18;;
49962;SDS011;36180;57.678;11.910;2023-04-15T14:39:34;9.32;;;4.38;;
49962;SDS011;36180;57.678;11.910;2023-04-15T14:42:01;4.95;;;4.30;;
49962;SDS011;36180;57.678;11.910;2023-04-15T14:44:29;4.75;;;4.10;;
49962;SDS011;36180;57.678;11.910;2023-04-15T14:46:56;6.88;;;4.43;;